createdAt,value
2022-08-04T00:00:20.663Z,99220.56
2022-08-04T00:03:19.548Z,99225.41
2022-08-04T00:06:15.881Z,99213.25
2022-08-04T00:09:15.738Z,99212.13
2022-08-04T00:12:05.026Z,99213.25
2022-08-04T00:14:55.810Z,99212.47
2022-08-04T00:17:47.642Z,99219.34
2022-08-04T00:20:41.005Z,99229.16
2022-08-04T00:24:10.522Z,99232.91
2022-08-04T00:26:40.383Z,99226.19
2022-08-04T00:29:29.301Z,99236.19
2022-08-04T00:32:34.432Z,99242.59
2022-08-04T00:35:22.900Z,99233.22
2022-08-04T00:38:12.147Z,99236.97
2022-08-04T00:41:12.194Z,99224.75
2022-08-04T00:44:24.260Z,99222.72
2022-08-04T00:47:38.135Z,99222.56
2022-08-04T00:51:04.242Z,99226.63
2022-08-04T00:54:03.530Z,99225.06
2022-08-04T00:57:33.424Z,99223.50
2022-08-04T01:00:23.468Z,99227.25
2022-08-04T01:03:20.024Z,99225.34
2022-08-04T01:06:16.491Z,99225.69
2022-08-04T01:09:28.744Z,99226.78
2022-08-04T01:12:48.384Z,99227.88
2022-08-04T01:15:59.309Z,99230.22
2022-08-04T01:18:59.070Z,99226.31
2022-08-04T01:22:36.681Z,99227.53
2022-08-04T01:26:42.496Z,99223.47
2022-08-04T01:29:46.971Z,99225.00
2022-08-04T01:32:40.162Z,99220.81
2022-08-04T01:35:46.736Z,99227.66
2022-08-04T01:38:38.453Z,99221.28
2022-08-04T01:41:32.883Z,99220.50
2022-08-04T01:44:21.748Z,99217.06
2022-08-04T01:47:11.748Z,99211.00
2022-08-04T01:50:09.068Z,99217.84
2022-08-04T01:52:57.623Z,99220.50
2022-08-04T01:55:54.139Z,99217.06
2022-08-04T01:58:43.832Z,99208.34
2022-08-04T02:01:38.393Z,99212.41
2022-08-04T02:04:27.770Z,99215.06
2022-08-04T02:07:29.709Z,99214.06
2022-08-04T02:10:29.160Z,99215.66
2022-08-04T02:13:24.823Z,99206.13
2022-08-04T02:16:23.393Z,99210.97
2022-08-04T02:19:23.357Z,99199.84
2022-08-04T02:22:19.442Z,99197.19
2022-08-04T02:25:10.179Z,99201.25
2022-08-04T02:28:13.433Z,99197.06
2022-08-04T02:31:28.669Z,99193.75
2022-08-04T02:34:30.337Z,99193.44
2022-08-04T02:37:22.748Z,99195.31
2022-08-04T02:40:13.423Z,99184.72
2022-08-04T02:43:05.910Z,99197.97
2022-08-04T02:45:58.000Z,99191.88
2022-08-04T02:48:49.665Z,99186.88
2022-08-04T02:51:39.783Z,99184.53
2022-08-04T02:54:37.054Z,99178.47
2022-08-04T02:57:28.857Z,99179.53
2022-08-04T03:00:19.969Z,99184.38
2022-08-04T03:03:23.226Z,99178.91
2022-08-04T03:06:55.582Z,99180.91
2022-08-04T03:10:17.091Z,99179.38
2022-08-04T03:13:53.539Z,99185.88
2022-08-04T03:17:33.179Z,99188.34
2022-08-04T03:21:02.807Z,99191.34
2022-08-04T03:24:43.472Z,99193.97
2022-08-04T03:28:38.793Z,99191.94
2022-08-04T03:32:06.100Z,99187.09
2022-08-04T03:35:22.612Z,99187.09
2022-08-04T03:38:56.875Z,99196.63
2022-08-04T03:42:27.556Z,99194.59
2022-08-04T03:46:22.071Z,99202.03
2022-08-04T03:49:51.497Z,99186.75
2022-08-04T03:53:32.399Z,99181.47
2022-08-04T03:57:13.816Z,99190.50
2022-08-04T04:00:10.782Z,99184.59
2022-08-04T04:03:42.511Z,99181.31
2022-08-04T04:07:14.273Z,99183.16
2022-08-04T04:10:40.246Z,99188.16
2022-08-04T04:14:01.335Z,99195.91
2022-08-04T04:17:10.506Z,99202.31
2022-08-04T04:20:43.250Z,99200.75
2022-08-04T04:23:58.420Z,99197.31
2022-08-04T04:26:59.274Z,99204.50
2022-08-04T04:30:09.305Z,99201.06
2022-08-04T04:33:26.851Z,99204.50
2022-08-04T04:36:27.668Z,99202.31
2022-08-04T04:39:22.497Z,99206.81
2022-08-04T04:42:37.626Z,99206.34
2022-08-04T04:45:31.080Z,99212.44
2022-08-04T04:48:31.841Z,99214.75
2022-08-04T04:51:30.064Z,99212.91
2022-08-04T04:54:29.918Z,99214.00
2022-08-04T04:57:20.156Z,99210.25
2022-08-04T05:00:39.450Z,99210.56
2022-08-04T05:04:02.412Z,99209.00
2022-08-04T05:07:23.313Z,99210.84
2022-08-04T05:10:32.093Z,99219.28
2022-08-04T05:14:34.477Z,99215.56
2022-08-04T05:16:48.563Z,99210.84
2022-08-04T05:20:01.963Z,99216.75
2022-08-04T05:22:58.202Z,99216.47
2022-08-04T05:25:59.779Z,99218.81
2022-08-04T05:28:54.973Z,99223.81
2022-08-04T05:31:51.242Z,99222.72
2022-08-04T05:34:44.039Z,99219.75
2022-08-04T05:37:33.422Z,99217.59
2022-08-04T05:40:24.584Z,99221.50
2022-08-04T05:43:13.932Z,99224.16
2022-08-04T05:46:02.340Z,99233.84
2022-08-04T05:48:51.718Z,99228.72
2022-08-04T05:51:40.304Z,99220.63
2022-08-04T05:54:29.323Z,99225.03
2022-08-04T05:57:18.506Z,99220.66
2022-08-04T06:00:38.516Z,99222.69
2022-08-04T06:03:17.889Z,99227.09
2022-08-04T06:06:06.591Z,99224.59
2022-08-04T06:08:54.525Z,99227.13
2022-08-04T06:12:02.004Z,99227.75
2022-08-04T06:14:59.432Z,99223.13
2022-08-04T06:19:56.299Z,99215.06
2022-08-04T06:20:59.830Z,99213.03
2022-08-04T06:23:53.196Z,99212.56
2022-08-04T06:26:47.134Z,99217.41
2022-08-04T06:29:38.701Z,99221.16
2022-08-04T06:32:40.035Z,99217.28
2022-08-04T06:35:31.487Z,99216.06
2022-08-04T06:38:21.186Z,99215.28
2022-08-04T06:41:09.454Z,99212.13
2022-08-04T06:44:00.961Z,99214.06
2022-08-04T06:46:49.473Z,99209.88
2022-08-04T06:49:44.179Z,99210.94
2022-08-04T06:52:48.873Z,99220.47
2022-08-04T06:55:36.555Z,99223.13
2022-08-04T06:58:25.453Z,99224.69
2022-08-04T07:01:14.613Z,99223.13
2022-08-04T07:04:02.287Z,99226.53
2022-08-04T07:06:51.496Z,99217.00
2022-08-04T07:09:39.378Z,99215.13
2022-08-04T07:12:28.974Z,99217.44
2022-08-04T07:15:19.253Z,99219.75
2022-08-04T07:18:07.036Z,99227.34
2022-08-04T07:20:54.774Z,99217.50
2022-08-04T07:23:43.675Z,99211.38
2022-08-04T07:26:31.723Z,99210.56
2022-08-04T07:29:19.942Z,99209.75
2022-08-04T07:32:11.003Z,99211.28
2022-08-04T07:34:59.352Z,99220.75
2022-08-04T07:37:47.462Z,99209.75
2022-08-04T07:40:38.299Z,99210.97
2022-08-04T07:43:27.590Z,99214.34
2022-08-04T07:46:14.858Z,99217.72
2022-08-04T07:49:03.662Z,99215.47
2022-08-04T07:51:52.964Z,99221.50
2022-08-04T07:54:41.843Z,99209.72
2022-08-04T07:57:41.027Z,99217.63
2022-08-04T08:00:29.546Z,99224.56
2022-08-04T08:03:17.961Z,99221.16
2022-08-04T08:06:31.674Z,99210.88
2022-08-04T08:09:21.249Z,99217.03
2022-08-04T08:12:38.286Z,99218.63
2022-08-04T08:15:21.261Z,99214.09
2022-08-04T08:18:08.610Z,99217.56
2022-08-04T08:20:56.275Z,99212.22
2022-08-04T08:23:43.821Z,99211.16
2022-08-04T08:26:32.100Z,99200.84
2022-08-04T08:29:21.083Z,99200.81
2022-08-04T08:32:13.235Z,99200.47
2022-08-04T08:35:01.022Z,99206.94
2022-08-04T08:37:58.195Z,99205.47
2022-08-04T08:40:53.660Z,99206.97
2022-08-04T08:44:07.671Z,99202.41
2022-08-04T08:47:16.155Z,99208.91
2022-08-04T08:50:22.254Z,99206.66
2022-08-04T08:53:27.760Z,99197.88
2022-08-04T08:56:30.952Z,99202.81
2022-08-04T08:59:45.017Z,99209.34
2022-08-04T09:03:03.935Z,99196.66
2022-08-04T09:06:18.685Z,99199.34
2022-08-04T09:09:29.960Z,99198.16
2022-08-04T09:12:26.084Z,99198.84
2022-08-04T09:15:18.307Z,99196.53
2022-08-04T09:18:23.464Z,99207.09
2022-08-04T09:21:19.977Z,99203.22
2022-08-04T09:24:35.405Z,99200.84
2022-08-04T09:27:23.451Z,99208.78
2022-08-04T09:30:13.914Z,99204.41
2022-08-04T09:33:17.453Z,99208.09
2022-08-04T09:36:26.765Z,99208.03
2022-08-04T09:39:25.889Z,99207.09
2022-08-04T09:42:29.284Z,99213.44
2022-08-04T09:45:26.656Z,99204.41
2022-08-04T09:48:38.143Z,99206.94
2022-08-04T09:51:57.764Z,99203.28
2022-08-04T09:54:53.270Z,99203.41
2022-08-04T09:57:56.667Z,99201.19
2022-08-04T10:00:49.623Z,99199.41
2022-08-04T10:03:42.839Z,99200.66
2022-08-04T10:06:44.578Z,99201.50
2022-08-04T10:09:51.892Z,99201.59
2022-08-04T10:12:53.650Z,99197.47
2022-08-04T10:15:48.626Z,99197.16
2022-08-04T10:18:52.045Z,99199.91
2022-08-04T10:22:27.972Z,99197.25
2022-08-04T10:25:37.531Z,99187.34
2022-08-04T10:28:28.107Z,99192.06
2022-08-04T10:31:29.104Z,99179.88
2022-08-04T10:34:23.194Z,99184.22
2022-08-04T10:37:23.273Z,99178.53
2022-08-04T10:40:40.556Z,99177.81
2022-08-04T10:43:46.213Z,99176.38
2022-08-04T10:46:41.745Z,99170.28
2022-08-04T10:49:38.278Z,99180.34
2022-08-04T10:52:34.834Z,99177.72
2022-08-04T10:56:07.288Z,99174.31
2022-08-04T10:58:47.557Z,99175.13
2022-08-04T11:02:02.010Z,99173.25
2022-08-04T11:05:02.401Z,99169.84
2022-08-04T11:07:54.263Z,99178.34
2022-08-04T11:10:48.850Z,99172.28
2022-08-04T11:13:47.198Z,99165.03
2022-08-04T11:16:40.993Z,99158.91
2022-08-04T11:19:44.891Z,99162.03
2022-08-04T11:22:47.452Z,99169.38
2022-08-04T11:25:49.760Z,99167.88
2022-08-04T11:28:59.269Z,99166.78
2022-08-04T11:31:52.364Z,99172.22
2022-08-04T11:34:52.612Z,99173.41
2022-08-04T11:37:51.145Z,99166.88
2022-08-04T11:40:55.829Z,99166.50
2022-08-04T11:44:01.784Z,99162.72
2022-08-04T11:46:55.099Z,99161.97
2022-08-04T11:49:57.324Z,99172.72
2022-08-04T11:52:47.969Z,99165.09
2022-08-04T11:56:07.670Z,99158.56
2022-08-04T11:58:50.161Z,99164.72
2022-08-04T12:01:57.449Z,99157.41
2022-08-04T12:04:58.269Z,99155.88
2022-08-04T12:08:04.766Z,99161.25
2022-08-04T12:11:07.854Z,99160.53
2022-08-04T12:14:09.554Z,99140.19
2022-08-04T12:17:02.287Z,99145.22
2022-08-04T12:20:04.181Z,99140.97
2022-08-04T12:23:05.594Z,99137.13
2022-08-04T12:26:02.039Z,99135.22
2022-08-04T12:29:11.577Z,99128.69
2022-08-04T12:32:08.373Z,99128.72
2022-08-04T12:35:11.135Z,99127.59
2022-08-04T12:38:06.660Z,99134.88
2022-08-04T12:40:59.000Z,99128.34
2022-08-04T12:43:47.481Z,99129.84
2022-08-04T12:46:36.992Z,99124.09
2022-08-04T12:49:28.010Z,99120.25
2022-08-04T12:52:18.817Z,99126.78
2022-08-04T12:55:09.461Z,99119.09
2022-08-04T12:58:03.341Z,99116.00
2022-08-04T13:00:57.028Z,99116.78
2022-08-04T13:03:49.309Z,99108.28
2022-08-04T13:06:38.729Z,99108.28
2022-08-04T13:09:34.553Z,99103.31
2022-08-04T13:12:32.882Z,99104.88
2022-08-04T13:15:24.997Z,99105.72
2022-08-04T13:18:15.153Z,99097.66
2022-08-04T13:24:31.042Z,99083.44
2022-08-04T13:27:23.938Z,99080.72
2022-08-04T13:30:22.615Z,99072.22
2022-08-04T13:30:24.090Z,99100.75
2022-08-04T13:33:11.345Z,99065.31
2022-08-04T13:36:00.728Z,99067.22
2022-08-04T13:38:53.235Z,99071.44
2022-08-04T13:41:46.700Z,99064.50
2022-08-04T13:44:55.499Z,99057.56
2022-08-04T13:47:45.029Z,99064.06
2022-08-04T13:50:35.370Z,99055.56
2022-08-04T13:53:26.647Z,99062.50
2022-08-04T13:56:18.275Z,99061.34
2022-08-04T13:59:12.360Z,99058.34
2022-08-04T14:02:07.090Z,99046.41
2022-08-04T14:04:59.184Z,99033.28
2022-08-04T14:07:51.451Z,99035.22
2022-08-04T14:10:41.026Z,99036.44
2022-08-04T14:13:41.248Z,99038.41
2022-08-04T14:16:30.235Z,99027.63
2022-08-04T14:19:19.370Z,99024.56
2022-08-04T14:22:07.584Z,99021.13
2022-08-04T14:24:58.966Z,99023.06
2022-08-04T14:27:51.125Z,99023.47
2022-08-04T14:30:39.594Z,99015.03
2022-08-04T14:34:02.509Z,99011.97
2022-08-04T14:36:56.069Z,99014.25
2022-08-04T14:40:07.846Z,99010.03
2022-08-04T14:42:57.525Z,99010.41
2022-08-04T14:45:54.684Z,99013.50
2022-08-04T14:49:03.342Z,99008.50
2022-08-04T14:51:59.225Z,99010.06
2022-08-04T14:54:47.423Z,99004.69
2022-08-04T14:58:35.315Z,99003.94
2022-08-04T15:00:47.169Z,99003.16
2022-08-04T15:03:35.956Z,98998.16
2022-08-04T15:06:38.799Z,99001.22
2022-08-04T15:09:28.196Z,99007.34
2022-08-04T15:12:16.521Z,98998.53
2022-08-04T15:15:26.727Z,98994.66
2022-08-04T15:18:14.142Z,98993.09
2022-08-04T15:21:04.065Z,98992.31
2022-08-04T15:23:52.191Z,98995.72
2022-08-04T15:26:49.272Z,98991.44
2022-08-04T15:30:00.106Z,98990.66
2022-08-04T15:32:54.335Z,98986.41
2022-08-04T15:35:44.791Z,98986.00
2022-08-04T15:38:40.552Z,98986.78
2022-08-04T15:41:46.327Z,98979.50
2022-08-04T15:46:41.887Z,98977.50
2022-08-04T15:48:33.689Z,98980.25
2022-08-04T15:51:32.753Z,98973.31
2022-08-04T15:54:30.697Z,98976.00
2022-08-04T15:57:59.434Z,98975.19
2022-08-04T16:01:17.799Z,98970.22
2022-08-04T16:04:23.574Z,98963.69
2022-08-04T16:07:10.932Z,98961.75
2022-08-04T16:10:38.233Z,98952.09
2022-08-04T16:13:25.902Z,98952.09
2022-08-04T16:16:30.892Z,98948.28
2022-08-04T16:19:47.573Z,98948.69
2022-08-04T16:22:39.033Z,98938.28
2022-08-04T16:25:46.432Z,98952.16
2022-08-04T16:28:43.095Z,98938.34
2022-08-04T16:31:34.334Z,98946.03
2022-08-04T16:34:47.887Z,98940.66
2022-08-04T16:37:35.587Z,98937.97
2022-08-04T16:40:41.062Z,98936.38
2022-08-04T16:43:31.037Z,98932.53
2022-08-04T16:47:08.356Z,98929.84
2022-08-04T16:50:03.322Z,98929.03
2022-08-04T16:52:53.114Z,98935.91
2022-08-04T16:55:40.831Z,98930.91
2022-08-04T16:58:32.543Z,98925.91
2022-08-04T17:01:22.012Z,98926.69
2022-08-04T17:04:30.869Z,98930.53
2022-08-04T17:07:18.300Z,98928.22
2022-08-04T17:10:06.549Z,98914.41
2022-08-04T17:13:08.552Z,98905.97
2022-08-04T17:16:08.392Z,98919.41
2022-08-04T17:18:59.020Z,98914.78
2022-08-04T17:21:47.975Z,98915.94
2022-08-04T17:24:38.206Z,98915.16
2022-08-04T17:28:08.843Z,98911.66
2022-08-04T17:30:33.654Z,98914.34
2022-08-04T17:33:21.251Z,98908.19
2022-08-04T17:39:24.410Z,98908.91
2022-08-04T17:42:12.218Z,98915.78
2022-08-04T17:45:48.734Z,98905.78
2022-08-04T17:48:24.212Z,98910.31
2022-08-04T17:51:17.474Z,98908.00
2022-08-04T17:54:06.849Z,98909.50
2022-08-04T17:56:58.027Z,98904.13
2022-08-04T17:59:55.664Z,98908.31
2022-08-04T18:02:55.022Z,98908.28
2022-08-04T18:06:01.762Z,98915.19
2022-08-04T18:08:57.329Z,98905.53
2022-08-04T18:11:58.919Z,98902.44
2022-08-04T18:14:49.093Z,98901.63
2022-08-04T18:18:21.217Z,98913.91
2022-08-04T18:20:47.416Z,98910.78
2022-08-04T18:23:50.334Z,98915.31
2022-08-04T18:26:38.993Z,98916.84
2022-08-04T18:29:31.633Z,98916.00
2022-08-04T18:32:20.682Z,98916.72
2022-08-04T18:35:16.271Z,98912.09
2022-08-04T18:38:22.337Z,98917.81
2022-08-04T18:41:13.112Z,98916.63
2022-08-04T18:44:00.695Z,98923.09
2022-08-04T18:46:55.709Z,98924.97
2022-08-04T18:51:01.880Z,98929.50
2022-08-04T18:52:53.031Z,98930.22
2022-08-04T18:55:56.756Z,98924.03
2022-08-04T18:58:45.753Z,98936.22
2022-08-04T19:02:16.203Z,98942.28
2022-08-04T19:04:43.428Z,98939.50
2022-08-04T19:08:11.135Z,98939.84
2022-08-04T19:10:44.870Z,98940.13
2022-08-04T19:13:34.900Z,98935.84
2022-08-04T19:16:23.450Z,98943.09
2022-08-04T19:19:10.858Z,98944.97
2022-08-04T19:22:02.504Z,98950.25
2022-08-04T19:24:54.541Z,98957.84
2022-08-04T19:27:43.291Z,98953.19
2022-08-04T19:30:30.654Z,98963.91
2022-08-04T19:33:18.080Z,98964.16
2022-08-04T19:36:12.854Z,98967.94
2022-08-04T19:39:11.896Z,98974.38
2022-08-04T19:42:04.346Z,98972.00
2022-08-04T19:44:54.086Z,98970.78
2022-08-04T19:48:18.338Z,98977.97
2022-08-04T19:50:50.053Z,98972.91
2022-08-04T19:53:43.211Z,98974.78
2022-08-04T19:56:40.883Z,98976.59
2022-08-04T19:59:32.317Z,98983.81
2022-08-04T20:02:20.074Z,98978.41
2022-08-04T20:05:08.719Z,98980.97
2022-08-04T20:07:56.757Z,98980.16
2022-08-04T20:10:51.551Z,98983.13
2022-08-04T20:13:41.409Z,98984.56
2022-08-04T20:16:30.917Z,98987.88
2022-08-04T20:19:18.370Z,98981.69
2022-08-04T20:22:06.052Z,98993.06
2022-08-04T20:25:27.407Z,98989.91
2022-08-04T20:28:36.144Z,98991.78
2022-08-04T20:31:31.680Z,98999.81
2022-08-04T20:34:19.233Z,98991.34
2022-08-04T20:37:10.253Z,98998.19
2022-08-04T20:39:59.589Z,99001.94
2022-08-04T20:42:50.492Z,98997.28
2022-08-04T20:45:55.945Z,98996.06
2022-08-04T20:48:46.883Z,99004.03
2022-08-04T20:51:39.732Z,98999.41
2022-08-04T20:54:27.951Z,98989.38
2022-08-04T20:57:18.720Z,98992.41
2022-08-04T21:00:29.750Z,98986.56
2022-08-04T21:03:17.791Z,98987.28
2022-08-04T21:06:08.249Z,98981.50
2022-08-04T21:08:57.317Z,98987.56
2022-08-04T21:11:47.316Z,98995.16
2022-08-04T21:14:38.160Z,98990.47
2022-08-04T21:17:59.597Z,98994.59
2022-08-04T21:20:36.132Z,98998.69
2022-08-04T21:23:33.929Z,98988.69
2022-08-04T21:26:26.110Z,99004.28
2022-08-04T21:29:13.465Z,99009.19
2022-08-04T21:32:07.764Z,99009.91
2022-08-04T21:34:57.688Z,99019.41
2022-08-04T21:37:56.641Z,99015.53
2022-08-04T21:40:53.626Z,99020.38
2022-08-04T21:43:42.481Z,99011.06
2022-08-04T21:46:31.359Z,99014.88
2022-08-04T21:49:18.913Z,99014.09
2022-08-04T21:52:07.618Z,99004.19
2022-08-04T21:54:58.191Z,99003.72
2022-08-04T21:57:51.503Z,99004.09
2022-08-04T22:00:39.213Z,99006.75
2022-08-04T22:03:53.590Z,99006.34
2022-08-04T22:06:34.643Z,98997.13
2022-08-04T22:09:22.364Z,99003.94
2022-08-04T22:15:22.859Z,98996.19
2022-08-04T22:18:28.031Z,98997.66
2022-08-04T22:21:15.576Z,98990.00
2022-08-04T22:24:02.927Z,98990.69
2022-08-04T22:26:51.105Z,98988.34
2022-08-04T22:29:39.251Z,98993.25
2022-08-04T22:32:28.083Z,98988.56
2022-08-04T22:35:42.945Z,98998.06
2022-08-04T22:38:41.786Z,98989.63
2022-08-04T22:41:34.215Z,99002.56
2022-08-04T22:44:36.575Z,98996.38
2022-08-04T22:47:25.563Z,98991.72
2022-08-04T22:50:26.926Z,98992.84
2022-08-04T22:53:17.769Z,98991.56
2022-08-04T22:56:10.684Z,98983.03
2022-08-04T22:58:58.782Z,98990.25
2022-08-04T23:01:59.243Z,98991.38
2022-08-04T23:04:54.096Z,98992.06
2022-08-04T23:07:49.037Z,99003.44
2022-08-04T23:10:37.247Z,99005.28
2022-08-04T23:13:29.166Z,99004.81
2022-08-04T23:16:16.990Z,99007.84
2022-08-04T23:19:09.694Z,99003.53
2022-08-04T23:22:01.691Z,99006.31
2022-08-04T23:24:51.731Z,99006.69
2022-08-04T23:27:43.695Z,98997.47
2022-08-04T23:30:31.466Z,99002.81
2022-08-04T23:33:18.768Z,99008.59
2022-08-04T23:36:06.798Z,99030.31
2022-08-04T23:38:54.076Z,99046.31
2022-08-04T23:41:53.524Z,99030.97
2022-08-04T23:44:41.999Z,99043.91
2022-08-04T23:48:15.397Z,99050.69
2022-08-04T23:50:40.854Z,99055.28
2022-08-04T23:53:29.840Z,99066.31
2022-08-04T23:56:20.062Z,99078.09
2022-08-04T23:59:23.147Z,99090.69
